Terminal Aerodrome Forecast
Issued by NWS

Current Version | Previous Version | Graphics & Text | Print | Product List | Glossary On
Versions: 1 2 3 4 5 6 7 8 9 10 11 12 13 14 15 16 17 18 19 20 21 22 23 24 25 26 27 28 29 30 31
000
FTUS41 KPBZ 041900 AAA
TAFHLG
TAF AMD
KHLG 041947Z 0420/0518 32008KT 3SM -SN BR BKN010
     FM050300 32009KT 2SM -SN BR OVC008
     FM051000 34006KT 4SM -SN OVC015
     FM051500 34008KT P6SM BKN025=

USA.gov is the U.S. government's official web portal to all federal, state and local government web resources and services.